Nearby METAR Reports

 

KGRB - Ashwaubenon, Wisconsin, USA
Distance from station: NW 5mi, 8km
Updated: Sat, 31-Jul-2021 12:53am CDT
Clear
Clear
 Wind from SW
Wind: SW 3 mph , 6 km/h
Temperature: 59°F , 15°C
Dew Point: 55°F , 13°C
Humidity: 88%
Barometer: 30.06 inHg , 1017.9 hPa
Clouds: Clear
Visibility: 10 miles , 16 km
2021/07/31 05:53 KGRB 310553Z AUTO 23003KT 10SM CLR 15/13 A3006 RMK AO2 SLP179 T01500128 10211 20144 402280122 56018
KATW - Appleton/Outagam, Wisconsin, USA
Distance from station: WSW 26mi, 42km
Updated: Sat, 31-Jul-2021 1:35am CDT
Clear
Clear
 Wind from SW
Wind: SW 8 mph , 13 km/h
Temperature: 61°F , 16°C
Dew Point: 55°F , 13°C
Humidity: 83%
Barometer: 30.06 inHg , 1017.9 hPa
Clouds: Clear
Visibility: 10 miles , 16 km
2021/07/31 06:35 KATW 310635Z AUTO 23007KT 10SM CLR 16/13 A3006 RMK AO2
 
KMTW - Manitowac Muni, Wisconsin, USA
Distance from station: SE 29mi, 47km
Updated: Sat, 31-Jul-2021 12:56am CDT
Clear
Clear
 Wind from WSW
Wind: WSW 3 mph , 6 km/h
Temperature: 59°F , 15°C
Dew Point: 54°F , 12°C
Humidity: 82%
Barometer: 30.08 inHg , 1018.6 hPa
Clouds: Clear
Visibility: 10 miles , 16 km
2021/07/31 05:56 KMTW 310556Z AUTO 24003KT 10SM CLR 15/12 A3008 RMK AO2 SLP184 T01500117 10183 20150 58016
KOCQ - Oconto, Wisconsin, USA
Distance from station: NNE 30mi, 49km
Updated: Sat, 31-Jul-2021 1:35am CDT
Clear
Clear
 Wind from WSW
Wind: WSW 5 mph , 7 km/h
Temperature: 59°F , 15°C
Dew Point: 57°F , 14°C
Humidity: 94%
Barometer: 30.03 inHg , 1016.9 hPa
Clouds: Clear
Visibility: 10 miles , 16 km
2021/07/31 06:35 KOCQ 310635Z AUTO 24004KT 10SM CLR 15/14 A3003 RMK AO1 T01460140
 
KEZS - Shawano Muni, Wisconsin, USA
Distance from station: NW 35mi, 56km
Updated: Sat, 31-Jul-2021 1:35am CDT
Clear
Clear
 Wind from WSW
Wind: WSW 5 mph , 7 km/h
Temperature: 64°F , 18°C
Dew Point: 59°F , 15°C
Humidity: 83%
Barometer: 30.05 inHg , 1017.6 hPa
Clouds: Clear
Visibility: 10 miles , 16 km
2021/07/31 06:35 KEZS 310635Z AUTO 24004KT 10SM CLR 18/15 A3005 RMK AO2 T01760154
KCLI - Clintonville, Wisconsin, USA
Distance from station: WNW 36mi, 58km
Updated: Sat, 31-Jul-2021 1:35am CDT
Clear
Clear
 Wind from WSW
Wind: WSW 3 mph , 6 km/h
Temperature: 61°F , 16°C
Dew Point: 57°F , 14°C
Humidity: 88%
Barometer: 30.06 inHg , 1017.9 hPa
Clouds: Clear
Visibility: 10 miles , 16 km
2021/07/31 06:35 KCLI 310635Z AUTO 25003KT 10SM CLR 16/14 A3006 RMK AO2 T01590140
 
KOSH - Oshkosh, Wisconsin, USA
Distance from station: SW 41mi, 66km
Updated: Sat, 31-Jul-2021 12:53am CDT
Clear
Clear
 Wind from SSW
Wind: SSW 7 mph , 11 km/h
Temperature: 61°F , 16°C
Dew Point: 57°F , 14°C
Humidity: 88%
Barometer: 30.07 inHg , 1018.3 hPa
Clouds: Clear
Visibility: 10 miles , 16 km
2021/07/31 05:53 KOSH 310553Z AUTO 20006KT 10SM CLR 16/14 A3007 RMK AO2 SLP177 T01560139 10211 20150 402220144 58011
KSUE - Sturgeon Bay, Wisconsin, USA
Distance from station: NE 42mi, 68km
Updated: Sat, 31-Jul-2021 12:56am CDT
Clear
Clear
 Wind from SSW
Wind: SSW 8 mph , 13 km/h
Temperature: 59°F , 15°C
Dew Point: 54°F , 12°C
Humidity: 82%
Clouds: Clear
Visibility: 10 miles , 16 km
2021/07/31 05:56 KSUE 310556Z AUTO 21007KT 10SM CLR 15/12 RMK AO2 SLPNO 6//// T01500117 10183 20150 402060133 PNO $
 
KSBM - Sheboygan, Wisconsin, USA
Distance from station: SSE 46mi, 75km
Updated: Sat, 31-Jul-2021 12:53am CDT
Clear
Clear
 Wind from SW
Wind: SW 6 mph , 9 km/h
Temperature: 55°F , 13°C
Dew Point: 52°F , 11°C
Humidity: 88%
Barometer: 30.08 inHg , 1018.6 hPa
Clouds: Clear
Visibility: 10 miles , 16 km
2021/07/31 05:53 KSBM 310553Z AUTO 22005KT 10SM CLR 13/11 A3008 RMK AO2 SLP186 T01330111 10189 20128 402220128 58014
KPCZ - Waupaca, Wisconsin, USA
Distance from station: W 48mi, 77km
Updated: Sat, 31-Jul-2021 1:35am CDT
Clear
Clear
 Wind from SW
Wind: SW 3 mph , 6 km/h
Temperature: 61°F , 16°C
Dew Point: 59°F , 15°C
Humidity: 94%
Barometer: 30.08 inHg , 1018.6 hPa
Clouds: Clear
Visibility: 10 miles , 16 km
2021/07/31 06:35 KPCZ 310635Z AUTO 22003KT 10SM CLR 16/15 A3008 RMK AO2 T01550145